createdAt,value
2023-04-06T00:04:13.479Z,88.96
2023-04-06T00:09:24.137Z,88.77
2023-04-06T00:17:37.464Z,88.20
2023-04-06T00:23:07.032Z,88.81
2023-04-06T00:31:02.187Z,89.40
2023-04-06T00:33:51.737Z,88.91
2023-04-06T00:36:18.398Z,89.03
2023-04-06T00:38:45.060Z,88.91
2023-04-06T00:44:14.682Z,89.22
2023-04-06T00:49:25.584Z,90.63
2023-04-06T00:58:17.418Z,93.26
2023-04-06T01:00:44.124Z,93.87
2023-04-06T01:03:10.900Z,94.54
2023-04-06T01:06:15.131Z,94.21
2023-04-06T01:08:41.836Z,95.15
2023-04-06T01:11:27.190Z,94.68
2023-04-06T01:20:01.747Z,96.46
2023-04-06T01:22:28.459Z,96.28
2023-04-06T01:24:55.085Z,96.91
2023-04-06T01:27:22.024Z,95.94
2023-04-06T01:32:51.855Z,97.29
2023-04-06T01:35:37.964Z,99.62
2023-04-06T01:38:23.202Z,99.35
2023-04-06T01:46:24.697Z,100.00
2023-04-06T01:48:51.421Z,100.00
2023-04-06T01:57:04.326Z,100.00
2023-04-06T01:59:31.171Z,100.00
2023-04-06T02:01:57.854Z,100.00
2023-04-06T02:04:43.127Z,100.00
2023-04-06T02:07:28.133Z,100.00
2023-04-06T02:16:19.157Z,100.00
2023-04-06T02:18:46.273Z,100.00
2023-04-06T02:21:14.930Z,100.00
2023-04-06T02:29:19.602Z,100.00
2023-04-06T02:37:37.290Z,100.00
2023-04-06T02:40:22.731Z,100.00
2023-04-06T02:43:26.450Z,100.00
2023-04-06T02:51:58.931Z,100.00
2023-04-06T02:54:25.655Z,100.00
2023-04-06T02:57:10.654Z,100.00
2023-04-06T02:59:56.034Z,100.00
2023-04-06T03:05:50.325Z,100.00
2023-04-06T03:08:35.332Z,100.00
2023-04-06T03:19:51.979Z,100.00
2023-04-06T03:25:21.428Z,100.00
2023-04-06T03:39:23.502Z,100.00
2023-04-06T03:42:08.583Z,100.00
2023-04-06T03:47:38.077Z,100.00
2023-04-06T03:50:23.283Z,100.00
2023-04-06T03:52:49.870Z,100.00
2023-04-06T04:01:03.343Z,100.00
2023-04-06T04:03:51.068Z,100.00
2023-04-06T04:06:37.094Z,100.00
2023-04-06T04:12:07.146Z,100.00
2023-04-06T04:14:33.838Z,100.00
2023-04-06T04:17:00.494Z,100.00
2023-04-06T04:25:32.721Z,100.00
2023-04-06T04:31:01.940Z,100.00
2023-04-06T04:33:28.544Z,100.00
2023-04-06T04:36:13.936Z,100.00
2023-04-06T04:44:27.274Z,100.00
2023-04-06T04:52:41.036Z,100.00
2023-04-06T04:55:28.390Z,100.00
2023-04-06T04:58:13.584Z,100.00
2023-04-06T05:00:58.893Z,100.00
2023-04-06T05:03:27.104Z,100.00
2023-04-06T05:06:13.585Z,100.00
2023-04-06T05:08:40.771Z,100.00
2023-04-06T05:14:29.292Z,100.00
2023-04-06T05:17:14.517Z,100.00
2023-04-06T05:19:41.384Z,100.00
2023-04-06T05:25:29.564Z,100.00
2023-04-06T05:33:42.750Z,100.00
2023-04-06T05:45:19.794Z,100.00
2023-04-06T05:48:24.191Z,100.00
2023-04-06T05:50:51.717Z,100.00
2023-04-06T05:56:03.016Z,100.00
2023-04-06T05:58:29.886Z,100.00
2023-04-06T06:00:59.791Z,100.00
2023-04-06T06:03:26.557Z,100.00
2023-04-06T06:05:53.333Z,100.00
2023-04-06T06:08:20.057Z,100.00
2023-04-06T06:10:46.690Z,100.00
2023-04-06T06:13:13.355Z,100.00
2023-04-06T06:15:39.955Z,100.00
2023-04-06T06:18:06.856Z,100.00
2023-04-06T06:20:33.858Z,100.00
2023-04-06T06:23:00.609Z,100.00
2023-04-06T06:25:27.413Z,100.00
2023-04-06T06:27:54.269Z,100.00
2023-04-06T06:30:23.059Z,100.00
2023-04-06T06:32:51.215Z,96.88
2023-04-06T06:35:18.047Z,72.22
2023-04-06T06:37:44.920Z,55.68
2023-04-06T06:40:14.228Z,47.56
2023-04-06T06:42:41.000Z,45.18
2023-04-06T06:45:08.469Z,43.37
2023-04-06T06:47:35.143Z,42.95
2023-04-06T06:50:02.277Z,43.79
2023-04-06T06:52:29.969Z,43.26
2023-04-06T06:54:57.851Z,40.91
2023-04-06T06:57:24.765Z,39.45
2023-04-06T06:59:51.400Z,39.50
2023-04-06T07:02:18.053Z,39.53
2023-04-06T07:04:44.750Z,39.45
2023-04-06T07:07:11.427Z,38.14
2023-04-06T07:09:38.124Z,36.15
2023-04-06T07:12:04.810Z,35.53
2023-04-06T07:14:31.409Z,35.73
2023-04-06T07:16:58.151Z,35.42
2023-04-06T07:19:24.880Z,35.34
2023-04-06T07:21:51.624Z,34.02
2023-04-06T07:24:18.339Z,33.30
2023-04-06T07:26:45.292Z,32.32
2023-04-06T07:29:11.961Z,32.61
2023-04-06T07:31:38.804Z,32.08
2023-04-06T07:34:05.790Z,32.22
2023-04-06T07:36:32.653Z,32.13
2023-04-06T07:38:59.264Z,32.05
2023-04-06T07:41:26.021Z,32.41
2023-04-06T07:43:52.689Z,31.97
2023-04-06T07:46:19.374Z,31.30
2023-04-06T07:48:46.119Z,31.74
2023-04-06T07:51:15.390Z,31.08
2023-04-06T07:53:42.017Z,30.42
2023-04-06T07:56:08.614Z,31.09
2023-04-06T07:58:35.666Z,30.62
2023-04-06T08:01:02.650Z,31.40
2023-04-06T08:03:29.472Z,31.33
2023-04-06T08:05:56.430Z,30.75
2023-04-06T08:08:23.664Z,30.58
2023-04-06T08:11:01.855Z,30.51
2023-04-06T08:13:29.143Z,29.74
2023-04-06T08:15:56.094Z,29.88
2023-04-06T08:18:22.798Z,29.95
2023-04-06T08:20:50.537Z,29.49
2023-04-06T08:23:17.126Z,29.20
2023-04-06T08:25:44.511Z,29.59
2023-04-06T08:28:11.138Z,29.94
2023-04-06T08:30:38.405Z,30.45
2023-04-06T08:33:05.149Z,30.44
2023-04-06T08:35:31.964Z,30.59
2023-04-06T08:37:58.878Z,30.81
2023-04-06T08:40:25.812Z,30.67
2023-04-06T08:42:56.489Z,29.82
2023-04-06T08:45:23.373Z,29.78
2023-04-06T08:47:55.972Z,30.20
2023-04-06T08:50:25.185Z,30.47
2023-04-06T08:52:51.819Z,30.97
2023-04-06T08:55:18.442Z,31.15
2023-04-06T08:57:46.636Z,30.79
2023-04-06T09:00:14.020Z,30.62
2023-04-06T09:02:43.721Z,30.40
2023-04-06T09:05:13.414Z,30.92
2023-04-06T09:07:40.270Z,31.55
2023-04-06T09:10:07.096Z,30.98
2023-04-06T09:12:34.516Z,31.62
2023-04-06T09:15:01.919Z,31.58
2023-04-06T09:30:07.450Z,33.96
2023-04-06T09:32:46.007Z,34.18
2023-04-06T09:35:15.739Z,34.11
2023-04-06T09:37:46.946Z,34.35
2023-04-06T09:40:14.700Z,34.43
2023-04-06T09:42:46.583Z,35.03
2023-04-06T09:45:13.588Z,34.49
2023-04-06T09:47:41.620Z,34.61
2023-04-06T09:50:09.378Z,34.45
2023-04-06T09:52:41.753Z,34.92
2023-04-06T09:55:09.264Z,35.25
2023-04-06T09:57:46.618Z,35.33
2023-04-06T10:00:15.703Z,35.93
2023-04-06T10:02:48.771Z,36.90
2023-04-06T10:05:28.376Z,36.46
2023-04-06T10:08:00.683Z,35.70
2023-04-06T10:10:28.605Z,34.92
2023-04-06T10:12:55.669Z,33.91
2023-04-06T10:15:23.156Z,33.99
2023-04-06T10:17:49.951Z,33.93
2023-04-06T10:20:26.765Z,33.15
2023-04-06T10:22:58.201Z,33.11
2023-04-06T10:25:28.968Z,33.21
2023-04-06T10:28:08.496Z,33.57
2023-04-06T10:30:35.762Z,32.78
2023-04-06T10:33:13.457Z,32.90
2023-04-06T10:35:40.407Z,33.93
2023-04-06T10:38:07.166Z,33.83
2023-04-06T10:40:36.619Z,34.05
2023-04-06T10:43:10.893Z,34.14
2023-04-06T10:45:38.889Z,33.97
2023-04-06T10:48:16.231Z,33.69
2023-04-06T10:50:47.887Z,32.79
2023-04-06T10:53:22.103Z,32.27
2023-04-06T10:55:50.330Z,32.62
2023-04-06T10:58:17.204Z,32.95
2023-04-06T11:00:50.543Z,32.64
2023-04-06T11:03:18.201Z,33.18
2023-04-06T11:05:48.881Z,32.43
2023-04-06T11:08:25.963Z,31.97
2023-04-06T11:10:52.641Z,31.96
2023-04-06T11:13:19.431Z,32.15
2023-04-06T11:15:46.158Z,31.57
2023-04-06T11:18:12.909Z,31.93
2023-04-06T11:20:39.614Z,31.74
2023-04-06T11:23:06.211Z,32.16
2023-04-06T11:25:33.855Z,32.02
2023-04-06T11:28:00.708Z,32.22
2023-04-06T11:30:27.374Z,31.42
2023-04-06T11:33:02.044Z,31.47
2023-04-06T11:35:32.140Z,31.41
2023-04-06T11:38:00.361Z,31.39
2023-04-06T11:40:29.020Z,31.85
2023-04-06T11:42:57.048Z,30.65
2023-04-06T11:45:23.966Z,30.61
2023-04-06T11:47:58.503Z,30.64
2023-04-06T11:50:25.277Z,31.31
2023-04-06T11:53:02.022Z,30.94
2023-04-06T11:55:28.939Z,31.24
2023-04-06T11:57:56.130Z,31.54
2023-04-06T12:00:22.847Z,31.73
2023-04-06T12:02:50.035Z,31.54
2023-04-06T12:05:16.819Z,32.02
2023-04-06T12:07:43.858Z,31.70
2023-04-06T12:10:10.839Z,30.13
2023-04-06T12:12:37.462Z,30.37
2023-04-06T12:15:04.243Z,30.33
2023-04-06T12:17:31.012Z,31.00
2023-04-06T12:20:05.413Z,31.46
2023-04-06T12:22:37.426Z,31.68
2023-04-06T12:25:04.186Z,31.71
2023-04-06T12:27:30.800Z,31.81
2023-04-06T12:29:57.409Z,32.27
2023-04-06T12:32:24.067Z,32.40
2023-04-06T12:34:52.032Z,32.67
2023-04-06T12:37:18.649Z,32.95
2023-04-06T12:39:46.031Z,31.67
2023-04-06T12:42:13.755Z,32.02
2023-04-06T12:44:40.710Z,32.50
2023-04-06T12:47:08.691Z,32.96
2023-04-06T12:49:35.677Z,32.55
2023-04-06T12:52:03.117Z,32.68
2023-04-06T12:54:29.725Z,32.53
2023-04-06T12:56:57.732Z,32.55
2023-04-06T12:59:26.334Z,32.89
2023-04-06T13:01:53.941Z,32.87
2023-04-06T13:04:20.785Z,32.92
2023-04-06T13:06:47.439Z,33.12
2023-04-06T13:09:14.082Z,33.17
2023-04-06T13:11:42.498Z,33.25
2023-04-06T13:14:09.225Z,33.26
2023-04-06T13:16:36.363Z,32.99
2023-04-06T13:19:03.738Z,32.46
2023-04-06T13:21:31.538Z,32.26
2023-04-06T13:23:58.189Z,32.30
2023-04-06T13:26:24.830Z,32.64
2023-04-06T13:28:51.437Z,31.84
2023-04-06T13:31:18.148Z,31.97
2023-04-06T13:33:44.749Z,32.36
2023-04-06T13:36:11.464Z,32.75
2023-04-06T13:38:40.092Z,32.50
2023-04-06T13:41:06.975Z,32.64
2023-04-06T13:43:33.594Z,32.78
2023-04-06T13:46:02.381Z,32.37
2023-04-06T13:48:29.170Z,32.37
2023-04-06T13:50:56.285Z,32.64
2023-04-06T13:53:22.865Z,32.87
2023-04-06T13:55:55.924Z,32.78
2023-04-06T13:58:22.890Z,32.79
2023-04-06T14:00:49.722Z,32.75
2023-04-06T14:03:16.612Z,32.93
2023-04-06T14:05:43.376Z,32.46
2023-04-06T14:08:10.059Z,32.17
2023-04-06T14:10:41.394Z,32.35
2023-04-06T14:13:07.998Z,32.45
2023-04-06T14:15:34.773Z,32.66
2023-04-06T14:18:01.760Z,32.65
2023-04-06T14:20:28.454Z,32.78
2023-04-06T14:22:56.838Z,32.29
2023-04-06T14:25:23.556Z,32.82
2023-04-06T14:27:50.143Z,33.00
2023-04-06T14:30:16.842Z,32.92
2023-04-06T14:32:43.560Z,33.23
2023-04-06T14:35:10.993Z,32.91
2023-04-06T14:37:37.712Z,32.80
2023-04-06T14:40:04.551Z,32.47
2023-04-06T14:42:31.147Z,32.69
2023-04-06T14:44:57.752Z,32.78
2023-04-06T14:47:24.473Z,33.20
2023-04-06T14:49:51.930Z,33.02
2023-04-06T14:52:18.743Z,33.06
2023-04-06T14:54:45.483Z,33.31
2023-04-06T14:57:12.103Z,33.42
2023-04-06T14:59:40.170Z,32.90
2023-04-06T15:02:07.842Z,32.52
2023-04-06T15:04:37.962Z,32.45
2023-04-06T15:07:04.861Z,32.88
2023-04-06T15:09:31.792Z,32.75
2023-04-06T15:11:58.477Z,32.99
2023-04-06T15:14:25.177Z,33.21
2023-04-06T15:16:51.779Z,33.82
2023-04-06T15:19:18.495Z,33.95
2023-04-06T15:21:45.162Z,33.62
2023-04-06T15:24:11.952Z,33.00
2023-04-06T15:26:38.556Z,33.20
2023-04-06T15:29:05.410Z,33.48
2023-04-06T15:31:37.586Z,33.67
2023-04-06T15:34:05.627Z,33.85
2023-04-06T15:36:32.454Z,34.21
2023-04-06T15:38:59.392Z,34.16
2023-04-06T15:41:29.545Z,34.61
2023-04-06T15:43:56.295Z,34.46
2023-04-06T15:46:23.378Z,34.21
2023-04-06T15:48:49.997Z,34.40
2023-04-06T15:51:17.999Z,34.25
2023-04-06T15:53:45.569Z,34.15
2023-04-06T15:56:14.573Z,33.97
2023-04-06T15:58:41.705Z,34.07
2023-04-06T16:01:12.242Z,34.30
2023-04-06T16:03:38.935Z,34.02
2023-04-06T16:06:08.961Z,34.17
2023-04-06T16:08:36.037Z,34.35
2023-04-06T16:11:02.780Z,34.55
2023-04-06T16:13:29.468Z,35.00
2023-04-06T16:15:56.220Z,34.27
2023-04-06T16:18:22.885Z,34.44
2023-04-06T16:20:49.883Z,34.54
2023-04-06T16:23:16.724Z,34.53
2023-04-06T16:25:43.397Z,34.65
2023-04-06T16:28:10.107Z,34.56
2023-04-06T16:30:37.404Z,34.61
2023-04-06T16:33:04.091Z,34.86
2023-04-06T16:35:30.682Z,35.19
2023-04-06T16:37:57.402Z,35.07
2023-04-06T16:40:24.102Z,35.33
2023-04-06T16:42:50.904Z,35.37
2023-04-06T16:45:17.666Z,35.51
2023-04-06T16:47:44.388Z,35.48
2023-04-06T16:50:11.215Z,35.54
2023-04-06T16:52:37.903Z,35.60
2023-04-06T16:55:05.501Z,35.63
2023-04-06T16:57:32.150Z,35.72
2023-04-06T16:59:58.848Z,35.77
2023-04-06T17:02:25.804Z,35.91
2023-04-06T17:04:52.542Z,35.87
2023-04-06T17:07:19.285Z,35.73
2023-04-06T17:09:46.172Z,35.90
2023-04-06T17:12:13.809Z,35.84
2023-04-06T17:14:40.573Z,36.17
2023-04-06T17:17:07.362Z,35.62
2023-04-06T17:19:34.008Z,35.62
2023-04-06T17:22:00.869Z,35.88
2023-04-06T17:24:27.568Z,36.19
2023-04-06T17:26:54.173Z,36.32
2023-04-06T17:29:20.926Z,36.32
2023-04-06T17:31:47.654Z,36.21
2023-04-06T17:34:14.323Z,36.27
2023-04-06T17:36:41.079Z,36.42
2023-04-06T17:39:07.781Z,36.50
2023-04-06T17:41:34.907Z,36.84
2023-04-06T17:44:01.664Z,36.70
2023-04-06T17:46:28.312Z,36.87
2023-04-06T17:48:54.905Z,37.18
2023-04-06T17:51:21.757Z,37.29
2023-04-06T17:53:48.394Z,37.09
2023-04-06T17:56:15.125Z,37.12
2023-04-06T17:58:41.840Z,37.26
2023-04-06T18:01:10.966Z,37.58
2023-04-06T18:03:38.486Z,37.88
2023-04-06T18:06:12.103Z,38.01
2023-04-06T18:08:38.906Z,37.91
2023-04-06T18:11:05.504Z,38.19
2023-04-06T18:13:32.426Z,38.13
2023-04-06T18:16:02.306Z,38.38
2023-04-06T18:18:29.490Z,38.12
2023-04-06T18:20:56.243Z,37.88
2023-04-06T18:23:22.928Z,38.34
2023-04-06T18:25:49.523Z,38.45
2023-04-06T18:28:18.005Z,38.93
2023-04-06T18:30:44.644Z,38.47
2023-04-06T18:33:11.470Z,38.58
2023-04-06T18:35:38.548Z,38.53
2023-04-06T18:38:05.250Z,38.75
2023-04-06T18:40:38.466Z,38.86
2023-04-06T18:43:05.846Z,38.97
2023-04-06T18:45:36.233Z,38.75
2023-04-06T18:48:03.075Z,38.60
2023-04-06T18:50:29.690Z,38.64
2023-04-06T18:52:56.490Z,38.42
2023-04-06T18:55:23.417Z,38.61
2023-04-06T18:57:50.021Z,38.22
2023-04-06T19:00:17.146Z,38.57
2023-04-06T19:02:44.657Z,38.69
2023-04-06T19:05:12.338Z,38.67
2023-04-06T19:07:39.708Z,38.71
2023-04-06T19:10:07.128Z,38.79
2023-04-06T19:12:34.556Z,38.80
2023-04-06T19:15:01.394Z,39.08
2023-04-06T19:17:28.064Z,39.14
2023-04-06T19:19:57.740Z,39.40
2023-04-06T19:22:24.466Z,39.50
2023-04-06T19:24:51.375Z,39.81
2023-04-06T19:27:17.979Z,39.76
2023-04-06T19:29:44.619Z,39.88
2023-04-06T19:32:12.003Z,40.27
2023-04-06T19:34:39.044Z,40.31
2023-04-06T19:37:06.685Z,40.34
2023-04-06T19:39:34.636Z,40.43
2023-04-06T19:42:01.233Z,40.43
2023-04-06T19:44:27.969Z,40.28
2023-04-06T19:46:54.706Z,40.44
2023-04-06T19:49:21.512Z,40.73
2023-04-06T19:51:48.143Z,40.49
2023-04-06T19:54:14.795Z,40.86
2023-04-06T19:56:41.501Z,41.25
2023-04-06T19:59:11.100Z,40.88
2023-04-06T20:01:38.073Z,41.65
2023-04-06T20:04:05.040Z,41.65
2023-04-06T20:06:32.835Z,41.27
2023-04-06T20:09:06.778Z,41.16
2023-04-06T20:11:34.632Z,40.84
2023-04-06T20:14:03.277Z,41.10
2023-04-06T20:16:29.980Z,41.07
2023-04-06T20:18:56.594Z,41.05
2023-04-06T20:21:23.292Z,41.12
2023-04-06T20:23:49.870Z,41.21
2023-04-06T20:26:16.840Z,41.45
2023-04-06T20:28:43.596Z,41.62
2023-04-06T20:31:10.227Z,41.85
2023-04-06T20:33:37.187Z,42.13
2023-04-06T20:36:04.059Z,42.58
2023-04-06T20:38:33.715Z,42.92
2023-04-06T20:41:00.812Z,43.13
2023-04-06T20:43:29.052Z,43.62
2023-04-06T20:45:57.772Z,43.78
2023-04-06T20:48:27.387Z,44.29
2023-04-06T20:50:54.056Z,44.70
2023-04-06T20:53:21.011Z,44.80
2023-04-06T20:55:47.958Z,44.31
2023-04-06T20:58:20.784Z,44.70
2023-04-06T21:00:50.662Z,45.03
2023-04-06T21:03:17.776Z,45.60
2023-04-06T21:05:55.402Z,46.38
2023-04-06T21:08:21.994Z,46.47
2023-04-06T21:10:48.572Z,46.18
2023-04-06T21:13:15.261Z,46.18
2023-04-06T21:15:41.902Z,46.43
2023-04-06T21:18:08.774Z,46.40
2023-04-06T21:20:35.771Z,46.46
2023-04-06T21:23:02.477Z,46.70
2023-04-06T21:25:29.108Z,46.22
2023-04-06T21:27:55.730Z,46.74
2023-04-06T21:30:22.435Z,46.46
2023-04-06T21:32:49.075Z,46.70
2023-04-06T21:35:15.764Z,46.87
2023-04-06T21:37:42.373Z,47.09
2023-04-06T21:40:09.282Z,47.83
2023-04-06T21:42:35.936Z,48.12
2023-04-06T21:45:02.724Z,50.23
2023-04-06T21:47:29.375Z,49.49
2023-04-06T21:49:56.025Z,48.80
2023-04-06T21:52:22.603Z,49.68
2023-04-06T21:54:49.269Z,49.78
2023-04-06T21:57:16.031Z,49.58
2023-04-06T21:59:42.669Z,50.16
2023-04-06T22:02:09.364Z,50.55
2023-04-06T22:04:36.271Z,51.10
2023-04-06T22:07:03.393Z,51.33
2023-04-06T22:09:30.008Z,51.02
2023-04-06T22:11:56.703Z,51.02
2023-04-06T22:14:23.468Z,58.72
2023-04-06T22:16:50.159Z,54.31
2023-04-06T22:19:16.939Z,54.23
2023-04-06T22:21:44.304Z,54.99
2023-04-06T22:24:11.148Z,54.97
2023-04-06T22:26:37.788Z,55.66
2023-04-06T22:29:04.385Z,55.26
2023-04-06T22:31:31.589Z,54.56
2023-04-06T22:33:58.452Z,55.41
2023-04-06T22:36:25.092Z,57.44
2023-04-06T22:38:51.730Z,57.47
2023-04-06T22:41:18.370Z,59.16
2023-04-06T22:43:44.972Z,61.99
2023-04-06T22:46:11.594Z,61.50
2023-04-06T22:48:38.271Z,62.34
2023-04-06T22:51:04.927Z,62.94
2023-04-06T22:53:31.535Z,63.92
2023-04-06T22:55:58.229Z,64.54
2023-04-06T22:58:24.847Z,65.06
2023-04-06T23:00:51.493Z,64.16
2023-04-06T23:03:18.276Z,63.54
2023-04-06T23:05:45.987Z,62.19
2023-04-06T23:08:12.698Z,59.22
2023-04-06T23:10:42.178Z,57.46
2023-04-06T23:13:09.224Z,58.18
2023-04-06T23:15:36.419Z,59.23
2023-04-06T23:18:03.373Z,60.00
2023-04-06T23:20:30.019Z,60.45
2023-04-06T23:22:56.731Z,60.96
2023-04-06T23:25:23.498Z,60.14
2023-04-06T23:27:50.076Z,60.67
2023-04-06T23:30:16.864Z,59.99
2023-04-06T23:32:45.201Z,59.87
2023-04-06T23:35:12.186Z,60.22
2023-04-06T23:37:38.823Z,60.30
2023-04-06T23:40:06.031Z,60.79
2023-04-06T23:42:32.696Z,61.30
2023-04-06T23:44:59.698Z,61.67
2023-04-06T23:47:26.485Z,61.93
2023-04-06T23:49:53.231Z,62.44
2023-04-06T23:52:20.116Z,62.55
2023-04-06T23:54:46.727Z,62.82
2023-04-06T23:57:13.326Z,61.85
2023-04-06T23:59:39.982Z,61.20
